createdAt,value
2023-05-20T00:01:50.421Z,13.50
2023-05-20T00:04:18.333Z,13.50
2023-05-20T00:06:45.642Z,13.50
2023-05-20T00:09:13.206Z,13.50
2023-05-20T00:11:40.441Z,13.50
2023-05-20T00:14:07.860Z,13.40
2023-05-20T00:16:35.174Z,13.40
2023-05-20T00:19:02.813Z,13.40
2023-05-20T00:21:29.992Z,13.40
2023-05-20T00:23:58.097Z,13.40
2023-05-20T00:26:26.634Z,13.40
2023-05-20T00:28:55.875Z,13.40
2023-05-20T00:31:23.052Z,13.40
2023-05-20T00:33:50.410Z,13.40
2023-05-20T00:36:17.444Z,13.40
2023-05-20T00:38:44.933Z,13.40
2023-05-20T00:41:12.475Z,13.40
2023-05-20T00:43:39.917Z,13.40
2023-05-20T00:46:07.277Z,13.40
2023-05-20T00:48:41.868Z,13.40
2023-05-20T00:51:10.394Z,13.40
2023-05-20T00:53:37.976Z,13.40
2023-05-20T00:56:05.768Z,13.40
2023-05-20T00:58:33.352Z,13.40
2023-05-20T01:01:00.662Z,13.40
2023-05-20T01:03:29.455Z,13.40
2023-05-20T01:05:56.975Z,13.40
2023-05-20T01:08:26.081Z,13.40
2023-05-20T01:11:08.211Z,13.40
2023-05-20T01:13:43.585Z,13.40
2023-05-20T01:16:12.019Z,13.30
2023-05-20T01:18:42.024Z,13.30
2023-05-20T01:21:12.568Z,13.30
2023-05-20T01:23:41.370Z,13.40
2023-05-20T01:26:13.951Z,13.40
2023-05-20T01:28:43.852Z,13.30
2023-05-20T01:31:33.881Z,13.30
2023-05-20T01:34:02.116Z,13.30
2023-05-20T01:36:31.422Z,13.30
2023-05-20T01:39:00.891Z,13.30
2023-05-20T01:41:29.194Z,13.30
2023-05-20T01:43:57.546Z,13.30
2023-05-20T01:46:24.764Z,13.30
2023-05-20T01:48:53.163Z,13.30
2023-05-20T01:51:20.321Z,13.20
2023-05-20T01:53:47.683Z,13.20
2023-05-20T01:56:15.369Z,13.20
2023-05-20T01:58:43.175Z,13.20
2023-05-20T02:01:10.279Z,13.30
2023-05-20T02:03:37.650Z,13.20
2023-05-20T02:06:04.786Z,13.30
2023-05-20T02:08:32.288Z,13.30
2023-05-20T02:11:00.174Z,13.20
2023-05-20T02:13:28.424Z,13.30
2023-05-20T02:15:55.843Z,13.30
2023-05-20T02:18:26.685Z,13.30
2023-05-20T02:20:54.030Z,13.30
2023-05-20T02:23:21.550Z,13.30
2023-05-20T02:25:48.564Z,13.30
2023-05-20T02:28:17.243Z,13.30
2023-05-20T02:30:44.342Z,13.30
2023-05-20T02:33:12.425Z,13.30
2023-05-20T02:35:40.223Z,13.30
2023-05-20T02:38:07.649Z,13.30
2023-05-20T02:40:37.292Z,13.30
2023-05-20T02:43:04.825Z,13.30
2023-05-20T02:45:34.657Z,13.30
2023-05-20T02:48:02.234Z,13.40
2023-05-20T02:50:31.354Z,13.30
2023-05-20T02:52:58.688Z,13.40
2023-05-20T02:55:26.007Z,13.40
2023-05-20T02:57:54.074Z,13.40
2023-05-20T03:00:22.532Z,13.40
2023-05-20T03:02:49.944Z,13.40
2023-05-20T03:05:17.087Z,13.40
2023-05-20T03:07:46.412Z,13.40
2023-05-20T03:10:13.550Z,13.40
2023-05-20T03:12:41.017Z,13.40
2023-05-20T03:15:09.790Z,13.50
2023-05-20T03:17:37.809Z,13.40
2023-05-20T03:20:07.417Z,13.50
2023-05-20T03:22:35.030Z,13.50
2023-05-20T03:25:02.442Z,13.50
2023-05-20T03:27:29.913Z,13.50
2023-05-20T03:29:57.104Z,13.50
2023-05-20T03:32:25.193Z,13.50
2023-05-20T03:34:52.379Z,13.60
2023-05-20T03:37:20.027Z,13.50
2023-05-20T03:39:47.166Z,13.60
2023-05-20T03:42:14.947Z,13.60
2023-05-20T03:44:42.469Z,13.60
2023-05-20T03:47:09.804Z,13.60
2023-05-20T03:49:37.144Z,13.60
2023-05-20T03:52:04.722Z,13.60
2023-05-20T03:54:31.959Z,13.70
2023-05-20T03:57:01.008Z,13.70
2023-05-20T03:59:28.559Z,13.70
2023-05-20T04:01:57.355Z,13.70
2023-05-20T04:04:24.823Z,13.80
2023-05-20T04:06:52.273Z,13.80
2023-05-20T04:09:19.797Z,13.90
2023-05-20T04:11:48.058Z,14.00
2023-05-20T04:14:15.584Z,13.90
2023-05-20T04:16:43.626Z,14.10
2023-05-20T04:19:11.055Z,14.10
2023-05-20T04:21:39.133Z,14.20
2023-05-20T04:24:06.906Z,14.20
2023-05-20T04:26:35.386Z,14.30
2023-05-20T04:29:04.162Z,14.30
2023-05-20T04:31:31.893Z,14.40
2023-05-20T04:33:59.389Z,14.40
2023-05-20T04:36:30.329Z,14.50
2023-05-20T04:38:57.969Z,14.50
2023-05-20T04:41:25.378Z,14.60
2023-05-20T04:43:52.406Z,14.60
2023-05-20T04:46:20.559Z,14.70
2023-05-20T04:48:48.284Z,14.70
2023-05-20T04:51:16.241Z,14.80
2023-05-20T04:53:46.254Z,14.80
2023-05-20T04:56:13.767Z,14.80
2023-05-20T04:58:41.596Z,14.90
2023-05-20T05:01:09.565Z,14.90
2023-05-20T05:03:36.976Z,15.00
2023-05-20T05:06:05.078Z,15.10
2023-05-20T05:08:32.236Z,15.20
2023-05-20T05:10:59.919Z,15.30
2023-05-20T05:13:27.138Z,15.30
2023-05-20T05:16:02.486Z,15.40
2023-05-20T05:18:31.375Z,15.50
2023-05-20T05:21:06.720Z,15.50
2023-05-20T05:23:35.607Z,15.60
2023-05-20T05:26:03.191Z,15.70
2023-05-20T05:28:30.561Z,15.70
2023-05-20T05:30:58.880Z,15.80
2023-05-20T05:33:26.664Z,15.90
2023-05-20T05:35:54.050Z,15.90
2023-05-20T05:38:21.148Z,16.00
2023-05-20T05:40:48.598Z,16.10
2023-05-20T05:43:17.153Z,16.10
2023-05-20T05:45:46.955Z,16.10
2023-05-20T05:48:14.163Z,16.20
2023-05-20T05:50:50.925Z,16.20
2023-05-20T05:53:20.008Z,16.30
2023-05-20T05:55:49.429Z,16.40
2023-05-20T05:58:17.672Z,16.40
2023-05-20T06:00:45.143Z,16.50
2023-05-20T06:03:12.997Z,16.70
2023-05-20T06:05:40.926Z,16.80
2023-05-20T06:08:08.176Z,16.90
2023-05-20T06:10:37.178Z,17.00
2023-05-20T06:13:05.284Z,17.00
2023-05-20T06:15:33.962Z,17.10
2023-05-20T06:18:02.863Z,17.10
2023-05-20T06:20:31.364Z,17.20
2023-05-20T06:22:59.896Z,17.20
2023-05-20T06:25:35.225Z,17.30
2023-05-20T06:28:02.600Z,17.40
2023-05-20T06:30:29.998Z,17.50
2023-05-20T06:32:57.201Z,17.50
2023-05-20T06:35:24.545Z,17.60
2023-05-20T06:37:51.760Z,17.70
2023-05-20T06:40:19.321Z,17.70
2023-05-20T06:42:46.583Z,17.80
2023-05-20T06:45:14.432Z,17.90
2023-05-20T06:47:45.361Z,18.00
2023-05-20T06:50:12.850Z,18.10
2023-05-20T06:52:40.027Z,18.20
2023-05-20T06:55:09.442Z,18.30
2023-05-20T06:57:36.795Z,18.40
2023-05-20T07:00:06.001Z,18.50
2023-05-20T07:02:39.359Z,18.60
2023-05-20T07:05:07.800Z,18.70
2023-05-20T07:07:35.195Z,18.80
2023-05-20T07:10:05.758Z,18.90
2023-05-20T07:12:35.562Z,19.00
2023-05-20T07:15:05.012Z,19.20
2023-05-20T07:17:33.393Z,19.30
2023-05-20T07:20:01.170Z,19.40
2023-05-20T07:22:30.028Z,19.50
2023-05-20T07:25:14.620Z,19.70
2023-05-20T07:27:41.730Z,19.80
2023-05-20T07:30:09.874Z,19.90
2023-05-20T07:32:38.503Z,20.00
2023-05-20T07:35:07.454Z,20.10
2023-05-20T07:37:35.565Z,20.20
2023-05-20T07:40:05.476Z,20.20
2023-05-20T07:42:32.741Z,20.30
2023-05-20T07:45:02.342Z,20.40
2023-05-20T07:47:32.930Z,20.40
2023-05-20T07:50:00.899Z,20.40
2023-05-20T07:52:32.103Z,20.50
2023-05-20T07:55:03.971Z,20.50
2023-05-20T07:57:31.244Z,20.60
2023-05-20T07:59:58.931Z,20.60
2023-05-20T08:02:27.729Z,20.60
2023-05-20T08:04:55.466Z,20.70
2023-05-20T08:07:22.707Z,20.80
2023-05-20T08:09:53.964Z,20.90
2023-05-20T08:12:21.857Z,20.90
2023-05-20T08:14:49.611Z,21.00
2023-05-20T08:17:16.881Z,21.10
2023-05-20T08:19:44.275Z,21.20
2023-05-20T08:22:14.217Z,21.30
2023-05-20T08:24:41.702Z,21.40
2023-05-20T08:27:08.902Z,21.40
2023-05-20T08:29:36.557Z,21.40
2023-05-20T08:32:04.781Z,21.50
2023-05-20T08:34:32.678Z,21.50
2023-05-20T08:36:59.855Z,21.60
2023-05-20T08:39:27.332Z,21.70
2023-05-20T08:41:57.789Z,21.70
2023-05-20T08:44:28.630Z,21.80
2023-05-20T08:46:57.036Z,21.80
2023-05-20T08:49:24.840Z,21.80
2023-05-20T08:51:51.948Z,21.80
2023-05-20T08:54:21.251Z,21.90
2023-05-20T08:56:48.461Z,21.90
2023-05-20T08:59:17.455Z,22.00
2023-05-20T09:01:45.241Z,22.10
2023-05-20T09:04:12.804Z,22.10
2023-05-20T09:06:47.026Z,22.10
2023-05-20T09:09:15.674Z,22.20
2023-05-20T09:11:43.511Z,22.30
2023-05-20T09:14:10.995Z,22.30
2023-05-20T09:16:41.373Z,22.30
2023-05-20T09:19:10.231Z,22.40
2023-05-20T09:21:39.042Z,22.50
2023-05-20T09:24:06.820Z,22.50
2023-05-20T09:26:34.687Z,22.60
2023-05-20T09:29:02.025Z,22.70
2023-05-20T09:31:33.286Z,22.80
2023-05-20T09:34:01.396Z,22.80
2023-05-20T09:36:35.034Z,22.90
2023-05-20T09:39:05.129Z,23.00
2023-05-20T09:41:40.790Z,23.10
2023-05-20T09:44:08.848Z,23.10
2023-05-20T09:46:37.041Z,23.10
2023-05-20T09:49:06.837Z,23.20
2023-05-20T09:51:34.438Z,23.30
2023-05-20T09:54:04.083Z,23.30
2023-05-20T09:56:32.074Z,23.40
2023-05-20T09:59:01.396Z,23.50
2023-05-20T10:01:29.568Z,25.00
2023-05-20T10:03:57.393Z,23.60
2023-05-20T10:07:02.108Z,23.60
2023-05-20T10:09:50.424Z,23.70
2023-05-20T10:13:02.235Z,23.80
2023-05-20T10:15:52.043Z,23.90
2023-05-20T10:18:40.715Z,23.90
2023-05-20T10:21:19.072Z,24.00
2023-05-20T10:23:46.445Z,24.10
2023-05-20T10:26:13.829Z,24.40
2023-05-20T10:28:41.802Z,24.80
2023-05-20T10:31:21.495Z,25.20
2023-05-20T10:33:49.539Z,25.40
2023-05-20T10:36:28.037Z,25.60
2023-05-20T10:38:59.554Z,25.70
2023-05-20T10:41:29.400Z,25.80
2023-05-20T10:44:06.782Z,25.90
2023-05-20T10:46:48.715Z,25.90
2023-05-20T10:49:26.861Z,26.00
2023-05-20T10:51:55.620Z,26.00
2023-05-20T10:54:23.381Z,26.00
2023-05-20T10:56:54.886Z,25.90
2023-05-20T10:59:22.334Z,25.70
2023-05-20T11:01:50.419Z,25.60
2023-05-20T11:04:19.548Z,25.40
2023-05-20T11:06:51.898Z,25.40
2023-05-20T11:09:19.086Z,25.40
2023-05-20T11:11:46.671Z,25.30
2023-05-20T11:14:15.186Z,25.30
2023-05-20T11:16:43.073Z,25.20
2023-05-20T11:19:16.456Z,25.10
2023-05-20T11:21:44.968Z,25.10
2023-05-20T11:24:22.172Z,25.10
2023-05-20T11:26:49.636Z,25.50
2023-05-20T11:29:17.610Z,25.40
2023-05-20T11:31:45.085Z,25.60
2023-05-20T11:34:12.462Z,25.60
2023-05-20T11:36:43.248Z,25.80
2023-05-20T11:39:12.055Z,25.90
2023-05-20T11:41:39.984Z,26.00
2023-05-20T11:44:11.614Z,26.00
2023-05-20T11:46:47.109Z,26.00
2023-05-20T11:49:15.248Z,25.90
2023-05-20T11:51:44.327Z,26.00
2023-05-20T11:54:11.456Z,25.90
2023-05-20T11:56:41.486Z,25.90
2023-05-20T11:59:14.794Z,25.70
2023-05-20T12:01:43.339Z,25.60
2023-05-20T12:04:12.100Z,25.60
2023-05-20T12:06:48.767Z,25.60
2023-05-20T12:09:15.977Z,25.60
2023-05-20T12:11:45.094Z,25.60
2023-05-20T12:14:12.183Z,25.70
2023-05-20T12:16:39.681Z,25.80
2023-05-20T12:19:08.725Z,26.00
2023-05-20T12:21:36.524Z,26.20
2023-05-20T12:24:06.075Z,26.30
2023-05-20T12:26:35.244Z,26.40
2023-05-20T12:29:02.450Z,26.50
2023-05-20T12:31:31.021Z,26.60
2023-05-20T12:33:59.476Z,26.80
2023-05-20T12:36:27.827Z,26.90
2023-05-20T12:38:54.866Z,27.20
2023-05-20T12:41:22.599Z,27.50
2023-05-20T12:43:49.777Z,27.80
2023-05-20T12:46:18.185Z,28.10
2023-05-20T12:48:45.313Z,28.50
2023-05-20T12:51:12.637Z,28.80
2023-05-20T12:53:39.776Z,29.00
2023-05-20T12:56:08.049Z,29.10
2023-05-20T12:58:35.264Z,29.10
2023-05-20T13:01:02.661Z,29.10
2023-05-20T13:03:29.812Z,29.00
2023-05-20T13:05:57.935Z,29.00
2023-05-20T13:08:26.520Z,29.00
2023-05-20T13:10:54.792Z,29.00
2023-05-20T13:13:22.131Z,29.00
2023-05-20T13:15:49.628Z,29.10
2023-05-20T13:18:17.290Z,29.30
2023-05-20T13:20:44.966Z,29.60
2023-05-20T13:23:12.180Z,29.80
2023-05-20T13:25:39.586Z,30.00
2023-05-20T13:28:06.691Z,30.30
2023-05-20T13:30:34.629Z,30.50
2023-05-20T13:33:01.968Z,30.60
2023-05-20T13:35:29.341Z,30.80
2023-05-20T13:37:56.389Z,30.90
2023-05-20T13:40:23.769Z,31.20
2023-05-20T13:42:51.025Z,31.40
2023-05-20T13:45:18.784Z,31.50
2023-05-20T13:47:46.457Z,31.50
2023-05-20T13:50:13.943Z,31.50
2023-05-20T13:52:41.033Z,31.50
2023-05-20T13:55:08.956Z,31.60
2023-05-20T13:57:36.574Z,31.80
2023-05-20T14:00:04.674Z,31.80
2023-05-20T14:02:36.220Z,31.90
2023-05-20T14:05:04.086Z,31.90
2023-05-20T14:07:31.148Z,31.70
2023-05-20T14:09:58.633Z,31.50
2023-05-20T14:12:25.867Z,31.10
2023-05-20T14:14:53.282Z,30.70
2023-05-20T14:17:20.453Z,30.50
2023-05-20T14:19:47.813Z,30.30
2023-05-20T14:22:15.726Z,30.30
2023-05-20T14:24:44.338Z,30.20
2023-05-20T14:27:11.561Z,29.80
2023-05-20T14:29:39.184Z,29.50
2023-05-20T14:32:06.617Z,29.20
2023-05-20T14:34:33.961Z,28.90
2023-05-20T14:37:07.531Z,28.60
2023-05-20T14:39:34.862Z,28.60
2023-05-20T14:42:03.171Z,28.80
2023-05-20T14:44:31.387Z,29.10
2023-05-20T14:46:58.588Z,29.40
2023-05-20T14:49:25.998Z,29.60
2023-05-20T14:51:53.121Z,29.90
2023-05-20T14:54:24.955Z,30.10
2023-05-20T14:56:52.188Z,30.20
2023-05-20T14:59:19.697Z,30.20
2023-05-20T15:01:46.865Z,30.10
2023-05-20T15:04:14.365Z,30.00
2023-05-20T15:06:41.648Z,29.70
2023-05-20T15:09:09.007Z,29.40
2023-05-20T15:11:36.103Z,29.20
2023-05-20T15:14:03.716Z,29.20
2023-05-20T15:16:30.921Z,29.20
2023-05-20T15:18:58.336Z,29.20
2023-05-20T15:21:27.111Z,29.30
2023-05-20T15:23:54.638Z,29.10
2023-05-20T15:26:21.806Z,29.00
2023-05-20T15:28:49.193Z,28.90
2023-05-20T15:31:16.371Z,28.90
2023-05-20T15:33:43.920Z,28.80
2023-05-20T15:36:11.180Z,28.80
2023-05-20T15:38:38.498Z,28.80
2023-05-20T15:41:06.816Z,28.70
2023-05-20T15:43:34.198Z,28.60
2023-05-20T15:46:01.607Z,28.50
2023-05-20T15:48:29.078Z,28.40
2023-05-20T15:50:56.316Z,28.30
2023-05-20T15:53:23.723Z,28.20
2023-05-20T15:55:51.657Z,28.30
2023-05-20T15:58:19.007Z,28.30
2023-05-20T16:00:46.185Z,28.40
2023-05-20T16:03:13.626Z,28.30
2023-05-20T16:05:40.809Z,28.30
2023-05-20T16:08:08.221Z,28.30
2023-05-20T16:10:35.831Z,28.20
2023-05-20T16:13:03.730Z,28.30
2023-05-20T16:15:36.543Z,28.40
2023-05-20T16:18:04.948Z,28.50
2023-05-20T16:20:32.190Z,28.50
2023-05-20T16:22:59.786Z,28.50
2023-05-20T16:25:27.227Z,28.40
2023-05-20T16:27:54.697Z,28.20
2023-05-20T16:30:21.793Z,28.00
2023-05-20T16:32:49.205Z,27.80
2023-05-20T16:35:16.733Z,27.60
2023-05-20T16:37:44.588Z,27.30
2023-05-20T16:40:11.987Z,27.20
2023-05-20T16:42:39.890Z,27.10
2023-05-20T16:45:07.557Z,27.00
2023-05-20T16:47:36.971Z,26.90
2023-05-20T16:50:04.956Z,26.80
2023-05-20T16:52:34.242Z,26.70
2023-05-20T16:55:04.725Z,26.60
2023-05-20T16:57:32.658Z,26.40
2023-05-20T16:59:59.839Z,26.10
2023-05-20T17:02:27.494Z,25.90
2023-05-20T17:04:54.612Z,25.70
2023-05-20T17:07:21.939Z,25.50
2023-05-20T17:09:49.065Z,25.30
2023-05-20T17:12:16.607Z,25.20
2023-05-20T17:14:43.777Z,25.00
2023-05-20T17:17:11.456Z,24.80
2023-05-20T17:19:38.623Z,24.60
2023-05-20T17:22:06.113Z,24.40
2023-05-20T17:24:34.208Z,24.20
2023-05-20T17:27:03.462Z,24.10
2023-05-20T17:29:31.558Z,24.00
2023-05-20T17:31:59.038Z,24.00
2023-05-20T17:34:26.142Z,24.00
2023-05-20T17:36:53.498Z,24.10
2023-05-20T17:39:20.741Z,24.20
2023-05-20T17:41:48.187Z,24.30
2023-05-20T17:44:15.477Z,24.30
2023-05-20T17:46:43.080Z,24.30
2023-05-20T17:49:10.358Z,24.20
2023-05-20T17:51:37.802Z,24.20
2023-05-20T17:54:04.878Z,24.10
2023-05-20T17:56:32.466Z,24.00
2023-05-20T17:58:59.696Z,23.90
2023-05-20T18:01:27.356Z,23.70
2023-05-20T18:03:55.009Z,23.60
2023-05-20T18:06:26.400Z,23.40
2023-05-20T18:08:53.556Z,23.20
2023-05-20T18:11:21.803Z,23.00
2023-05-20T18:13:48.922Z,22.70
2023-05-20T18:16:16.337Z,22.60
2023-05-20T18:18:43.450Z,22.40
2023-05-20T18:21:10.977Z,22.20
2023-05-20T18:23:38.075Z,22.00
2023-05-20T18:26:07.119Z,21.80
2023-05-20T18:28:34.281Z,21.60
2023-05-20T18:31:01.784Z,21.50
2023-05-20T18:33:29.310Z,21.30
2023-05-20T18:35:56.886Z,21.10
2023-05-20T18:38:23.986Z,21.00
2023-05-20T18:40:51.530Z,20.80
2023-05-20T18:43:18.563Z,20.80
2023-05-20T18:45:46.140Z,20.60
2023-05-20T18:48:20.213Z,20.50
2023-05-20T18:50:53.428Z,20.40
2023-05-20T18:53:20.666Z,20.20
2023-05-20T18:55:48.514Z,20.10
2023-05-20T18:58:15.625Z,20.00
2023-05-20T19:00:43.048Z,19.90
2023-05-20T19:03:10.197Z,19.80
2023-05-20T19:05:37.900Z,19.70
2023-05-20T19:08:05.975Z,19.60
2023-05-20T19:10:33.488Z,19.50
2023-05-20T19:13:01.233Z,19.40
2023-05-20T19:15:30.238Z,19.40
2023-05-20T19:17:57.375Z,19.30
2023-05-20T19:20:24.924Z,19.20
2023-05-20T19:22:55.269Z,19.10
2023-05-20T19:25:22.676Z,19.00
2023-05-20T19:27:49.815Z,18.90
2023-05-20T19:30:17.138Z,18.80
2023-05-20T19:32:44.432Z,18.80
2023-05-20T19:35:11.882Z,18.70
2023-05-20T19:37:39.001Z,18.60
2023-05-20T19:40:07.946Z,18.60
2023-05-20T19:42:35.237Z,18.50
2023-05-20T19:45:02.627Z,18.50
2023-05-20T19:47:29.866Z,18.40
2023-05-20T19:49:57.573Z,18.30
2023-05-20T19:52:24.639Z,18.20
2023-05-20T19:54:52.045Z,18.20
2023-05-20T19:57:19.188Z,18.10
2023-05-20T19:59:46.786Z,18.10
2023-05-20T20:02:14.859Z,18.00
2023-05-20T20:04:42.321Z,17.90
2023-05-20T20:07:09.572Z,17.80
2023-05-20T20:09:36.983Z,17.80
2023-05-20T20:12:05.276Z,17.70
2023-05-20T20:14:32.987Z,17.70
2023-05-20T20:17:00.547Z,17.60
2023-05-20T20:19:28.619Z,17.60
2023-05-20T20:21:56.724Z,17.50
2023-05-20T20:24:24.260Z,17.50
2023-05-20T20:26:54.171Z,17.40
2023-05-20T20:29:22.264Z,17.30
2023-05-20T20:31:49.606Z,17.30
2023-05-20T20:34:17.018Z,17.20
2023-05-20T20:36:45.063Z,17.20
2023-05-20T20:39:19.126Z,17.20
2023-05-20T20:41:47.444Z,17.10
2023-05-20T20:44:22.755Z,17.10
2023-05-20T20:46:50.850Z,17.10
2023-05-20T20:49:22.689Z,17.00
2023-05-20T20:51:50.403Z,17.00
2023-05-20T20:54:17.880Z,17.00
2023-05-20T20:56:47.228Z,16.90
2023-05-20T20:59:15.988Z,16.90
2023-05-20T21:01:44.717Z,16.80
2023-05-20T21:04:13.793Z,16.80
2023-05-20T21:06:47.508Z,16.80
2023-05-20T21:09:15.932Z,16.70
2023-05-20T21:11:45.329Z,16.70
2023-05-20T21:14:13.353Z,16.70
2023-05-20T21:16:42.165Z,16.60
2023-05-20T21:19:09.922Z,16.60
2023-05-20T21:21:37.127Z,16.50
2023-05-20T21:24:04.777Z,16.50
2023-05-20T21:26:31.898Z,16.50
2023-05-20T21:28:59.266Z,16.40
2023-05-20T21:31:26.379Z,16.40
2023-05-20T21:33:53.723Z,16.30
2023-05-20T21:36:21.924Z,16.20
2023-05-20T21:38:49.254Z,16.20
2023-05-20T21:41:16.794Z,16.10
2023-05-20T21:43:44.263Z,16.10
2023-05-20T21:46:11.667Z,16.00
2023-05-20T21:48:39.684Z,16.00
2023-05-20T21:51:06.788Z,15.90
2023-05-20T21:53:34.403Z,15.90
2023-05-20T21:56:02.026Z,15.80
2023-05-20T21:58:29.354Z,15.80
2023-05-20T22:00:56.519Z,15.70
2023-05-20T22:03:24.373Z,15.70
2023-05-20T22:05:51.853Z,15.60
2023-05-20T22:08:19.600Z,15.60
2023-05-20T22:10:47.132Z,15.50
2023-05-20T22:13:14.745Z,15.40
2023-05-20T22:15:42.201Z,15.40
2023-05-20T22:18:09.767Z,15.30
2023-05-20T22:20:38.521Z,15.30
2023-05-20T22:23:05.929Z,15.30
2023-05-20T22:25:33.037Z,15.20
2023-05-20T22:28:01.407Z,15.20
2023-05-20T22:30:28.509Z,15.10
2023-05-20T22:32:56.433Z,15.10
2023-05-20T22:35:23.813Z,15.00
2023-05-20T22:37:51.353Z,15.00
2023-05-20T22:40:18.509Z,15.00
2023-05-20T22:42:45.888Z,14.90
2023-05-20T22:45:13.038Z,14.90
2023-05-20T22:47:40.801Z,14.90
2023-05-20T22:50:08.581Z,14.80
2023-05-20T22:52:36.950Z,14.80
2023-05-20T22:55:04.280Z,14.80
2023-05-20T22:57:31.601Z,14.70
2023-05-20T22:59:58.718Z,14.70
2023-05-20T23:02:26.394Z,14.70
2023-05-20T23:04:53.528Z,14.60
2023-05-20T23:07:21.882Z,14.60
2023-05-20T23:09:49.142Z,14.60
2023-05-20T23:12:16.652Z,14.50
2023-05-20T23:14:43.810Z,14.50
2023-05-20T23:17:11.209Z,14.50
2023-05-20T23:19:38.307Z,14.40
2023-05-20T23:22:05.672Z,14.40
2023-05-20T23:24:32.755Z,14.40
2023-05-20T23:27:00.223Z,14.30
2023-05-20T23:29:27.305Z,14.30
2023-05-20T23:31:55.003Z,14.20
2023-05-20T23:34:22.114Z,14.20
2023-05-20T23:36:49.967Z,14.20
2023-05-20T23:39:18.350Z,14.10
2023-05-20T23:41:46.311Z,14.10
2023-05-20T23:44:13.426Z,14.10
2023-05-20T23:46:41.839Z,14.00
2023-05-20T23:49:10.241Z,14.00
2023-05-20T23:51:37.638Z,13.90
2023-05-20T23:54:04.739Z,14.00
2023-05-20T23:56:32.163Z,13.90
2023-05-20T23:58:59.242Z,13.90
